Data for 05/31/2008

Time Sea-Level Adjusted Pressure Absolute Pressure Temperature Relative Humidity Dew Point   
(mb) (inHg) (mb) (inHg) (C) (F) (%) (C) (F)
00:05 1022 30.18 851 25.13 10 50.1 91 8.7 47.6
00:10 1022 30.18 851 25.13 10.1 50.1 91 8.7 47.7
00:15 1022 30.18 851 25.13 9.9 49.9 92 8.7 47.7
00:20 1022 30.18 851 25.13 9.8 49.7 93 8.8 47.8
00:25 1022 30.18 851 25.13 9.8 49.7 93 8.8 47.8
00:30 1022 30.18 851 25.13 9.7 49.5 93 8.7 47.6
00:35 1022 30.18 851 25.13 9.7 49.4 92 8.4 47.1
00:40 1022 30.18 851 25.13 9.7 49.4 90 8.1 46.6
00:45 1022 30.18 851 25.13 9.6 49.4 90 8.1 46.6
00:50 1022 30.18 851 25.13 9.4 48.9 90 7.9 46.2
00:55 1022 30.18 851 25.13 9.1 48.4 91 7.8 46
01:00 1022 30.18 851 25.13 8.9 48.1 92 7.7 45.9
01:05 1022 30.18 851 25.13 8.8 47.8 93 7.8 46
01:10 1022 30.18 851 25.13 8.8 47.8 93 7.7 45.9
01:15 1022 30.18 851 25.13 8.9 48.1 94 8 46.3
01:20 1022 30.18 851 25.13 8.8 47.9 94 8 46.3
01:25 1022 30.18 851 25.13 8.8 47.9 94 7.9 46.3
01:30 1022 30.18 851 25.13 8.8 47.8 94 7.8 46.1
01:35 1022 30.18 851 25.13 8.7 47.7 94 7.8 46.1
01:40 1022 30.18 851 25.13 8.7 47.7 94 7.7 45.9
01:45 1022 30.18 851 25.13 8.8 47.8 93 7.7 45.9
01:50 1022 30.18 851 25.13 8.7 47.7 93 7.7 45.8
01:55 1022 30.18 851 25.13 8.7 47.7 93 7.7 45.9
02:00 1022 30.18 851 25.13 8.7 47.6 94 7.7 45.8
02:05 1022 30.18 851 25.13 8.7 47.6 94 7.7 45.9
02:10 1022 30.18 851 25.13 8.7 47.6 94 7.7 45.8
02:15 1022 30.18 851 25.13 8.7 47.6 94 7.7 45.9
02:20 1022 30.18 851 25.13 8.8 47.8 93 7.8 46
02:25 1022 30.18 851 25.13 8.7 47.7 93 7.7 45.9
02:30 1022 30.18 851 25.13 8.7 47.6 94 7.7 45.9
02:35 1022 30.18 851 25.13 8.6 47.5 93 7.6 45.7
02:40 1022 30.18 851 25.13 8.7 47.7 93 7.6 45.7
02:45 1022 30.18 851 25.13 8.8 47.9 92 7.6 45.7
02:50 1022 30.18 851 25.13 8.7 47.7 92 7.6 45.6
02:55 1022 30.18 851 25.13 8.7 47.7 92 7.5 45.5
03:00 1022 30.18 851 25.13 8.7 47.7 92 7.5 45.5
03:05 1022 30.18 851 25.13 8.6 47.4 92 7.3 45.2
03:10 1022 30.18 851 25.13 8.4 47.2 92 7.3 45.1
03:15 1022 30.18 851 25.13 8.5 47.2 92 7.3 45.1
03:20 1022 30.18 851 25.13 8.4 47.1 92 7.2 45
03:25 1022 30.18 851 25.13 8.3 47 92 7.2 44.9
03:30 1022 30.18 851 25.13 8.4 47.1 92 7.1 44.9
03:35 1022 30.18 851 25.13 8.4 47.1 92 7.1 44.7
03:40 1022 30.18 851 25.13 8.3 46.9 92 7 44.6
03:45 1022 30.18 851 25.13 8.1 46.6 92 6.9 44.5
03:50 1022 30.18 851 25.13 8 46.3 93 6.9 44.3
03:55 1022 30.18 851 25.13 7.9 46.3 93 6.8 44.3
04:00 1022 30.18 851 25.13 7.9 46.1 93 6.8 44.2
04:05 1022 30.18 851 25.13 7.8 46 93 6.7 44.1
04:10 1022 30.18 851 25.13 7.7 45.9 93 6.6 44
04:15 1022 30.18 851 25.13 7.7 45.9 93 6.7 44.1
04:20 1022 30.18 851 25.13 7.7 45.9 93 6.7 44
04:25 1022 30.18 851 25.13 7.7 45.9 93 6.6 43.8
04:30 1022 30.18 851 25.13 7.6 45.6 93 6.4 43.6
04:35 1022 30.18 851 25.13 7.4 45.3 93 6.3 43.4
04:40 1022 30.18 851 25.13 7.3 45.1 93 6.2 43.2
04:45 1022 30.18 851 25.13 7.5 45.4 92 6.2 43.2
04:50 1022 30.18 851 25.13 7.6 45.7 91 6.2 43.2
04:55 1022 30.18 851 25.13 7.6 45.6 89 5.9 42.6
05:00 1022 30.18 851 25.13 7.4 45.4 89 5.7 42.2
05:05 1022 30.18 851 25.13 7.3 45.2 89 5.6 42.1
05:10 1022 30.18 851 25.13 7.2 45 88 5.5 41.8
05:15 1022 30.18 851 25.13 7.1 44.8 89 5.4 41.7
05:20 1022 30.18 851 25.13 7 44.6 89 5.3 41.6
05:25 1022 30.18 851 25.13 6.9 44.4 89 5.2 41.4
05:30 1022 30.18 851 25.13 6.7 44.1 89 5.1 41.2
05:35 1022 30.18 851 25.13 6.8 44.2 89 5 41.1
05:40 1022 30.18 851 25.13 6.8 44.2 88 5 41
05:45 1022 30.18 851 25.13 6.7 44.1 88 4.9 40.9
05:50 1022 30.18 851 25.13 6.8 44.3 87 4.9 40.8
05:55 1022 30.18 851 25.13 7 44.6 87 5 40.9
06:00 1022 30.18 851 25.13 6.8 44.3 88 4.9 40.8
06:05 1022 30.18 851 25.13 6.9 44.3 88 5 40.9
06:10 1022 30.18 851 25.13 6.9 44.5 88 5.1 41.2
06:15 1022 30.18 851 25.13 7.1 44.8 89 5.3 41.6
06:20 1022 30.18 851 25.13 7.2 45 89 5.5 42
06:25 1022 30.18 851 25.13 7.4 45.2 89 5.6 42.1
06:30 1022 30.18 851 25.13 7.3 45.2 89 5.7 42.2
06:35 1022 30.18 851 25.13 7.3 45.1 89 5.6 42
06:40 1022 30.18 851 25.13 7.3 45.2 89 5.6 42.1
06:45 1022 30.18 851 25.13 7.5 45.6 88 5.8 42.4
06:50 1022 30.18 851 25.13 7.9 46.1 87 5.9 42.6
06:55 1022 30.18 851 25.13 8 46.3 87 6 42.8
07:00 1022 30.18 851 25.13 8.1 46.5 87 6.1 42.9
07:05 1022 30.18 851 25.13 8.2 46.7 87 6.1 43
07:10 1022 30.18 851 25.13 8.2 46.8 86 6 42.9
07:15 1022 30.18 851 25.13 8.5 47.2 86 6.2 43.2
07:20 1022 30.18 851 25.13 8.7 47.6 85 6.4 43.5
07:25 1022 30.18 851 25.13 8.8 47.9 86 6.6 43.9
07:30 1022 30.18 851 25.13 9.3 48.7 84 6.8 44.3
07:35 1022 30.18 851 25.13 9.6 49.3 84 7 44.7
07:40 1022 30.18 851 25.13 10.1 50.1 83 7.3 45.2
07:45 1022 30.18 851 25.13 10.5 50.9 81 7.5 45.4
07:50 1022 30.18 851 25.13 11 51.8 80 7.7 45.8
07:55 1022 30.18 851 25.13 11.5 52.7 78 7.7 45.9
08:00 1022 30.18 851 25.13 11.4 52.4 79 7.8 46.1
08:05 1022 30.18 851 25.13 11.4 52.6 77 7.5 45.6
08:10 1022 30.18 851 25.13 11.8 53.3 77 7.9 46.2
08:15 1022 30.18 851 25.13 12.4 54.3 72 7.5 45.4
08:20 1022 30.18 851 25.13 12.5 54.4 71 7.4 45.4
08:25 1022 30.18 851 25.13 12.2 54 71 7.1 44.8
08:30 1022 30.18 851 25.13 13.3 55.9 66 7.2 45
08:35 1022 30.18 851 25.13 13.7 56.6 65 7.2 44.9
08:40 1022 30.18 851 25.13 13.7 56.6 64 7 44.6
08:45 1022 30.18 851 25.13 13.9 56.9 62 6.8 44.3
08:50 1022 30.18 851 25.13 14.1 57.3 62 7 44.6
08:55 1022 30.18 851 25.13 14.9 58.8 59 7 44.7
09:00 1022 30.18 851 25.13 15.4 59.6 56 6.8 44.2
09:05 1022 30.18 851 25.13 15 58.9 58 6.9 44.4
09:10 1022 30.18 851 25.13 14.9 58.9 59 7 44.6
09:15 1022 30.18 851 25.13 15.2 59.3 57 6.8 44.2
09:20 1022 30.18 851 25.13 14.7 58.5 58 6.6 43.8
09:25 1022 30.18 851 25.13 14.5 58.1 58 6.4 43.5
09:30 1022 30.18 851 25.13 15.1 59.2 55 6.3 43.4
09:35 1022 30.18 851 25.13 15.3 59.5 56 6.5 43.8
09:40 1022 30.18 851 25.13 15.1 59.3 55 6.3 43.3
09:45 1022 30.18 851 25.13 14.6 58.3 59 6.7 44
09:50 1022 30.18 851 25.13 15 59 57 6.6 43.9
09:55 1022 30.18 851 25.13 15.8 60.5 54 6.7 44
10:00 1022 30.18 851 25.13 16.2 61.1 52 6.5 43.7
10:05 1022 30.18 851 25.13 16 60.9 54 6.7 44.1
10:10 1022 30.18 851 25.13 16.2 61.2 53 6.7 44
10:15 1022 30.18 851 25.13 16.2 61.2 54 7 44.6
10:20 1022 30.18 851 25.13 16.5 61.8 53 6.9 44.4
10:25 1022 30.18 851 25.13 16.1 60.9 53 6.6 43.9
10:30 1022 30.18 851 25.13 16.6 61.8 51 6.6 43.8
10:35 1022 30.18 851 25.13 16.7 62 52 6.9 44.5
10:40 1021 30.15 851 25.13 16.1 60.9 52 6.4 43.6
10:45 1021 30.15 851 25.13 15.9 60.6 54 6.6 43.9
10:50 1021 30.15 851 25.13 15.9 60.7 52 6.2 43.2
10:55 1021 30.15 851 25.13 17 62.7 51 6.9 44.3
11:00 1021 30.15 851 25.13 16.9 62.4 52 7 44.5
11:05 1021 30.15 850 25.1 16.5 61.7 53 6.9 44.4
11:10 1021 30.15 850 25.1 17 62.6 50 6.7 44
11:15 1021 30.15 850 25.1 17.7 63.8 46 6 42.8
11:20 1021 30.15 850 25.1 18.5 65.3 45 6.4 43.6
11:25 1021 30.15 850 25.1 17.9 64.2 44 5.5 41.9
11:30 1021 30.15 850 25.1 17.1 62.8 46 5.6 42
11:35 1021 30.15 850 25.1 17.1 62.7 45 5 41
11:40 1021 30.15 850 25.1 17.5 63.5 44 5.1 41.2
11:45 1021 30.15 850 25.1 18.3 65 41 5 41
11:50 1021 30.15 850 25.1 17.4 63.4 45 5.6 42.1
11:55 1021 30.15 850 25.1 17 62.7 45 5.3 41.5
12:00 1021 30.15 850 25.1 16.8 62.2 47 5.5 41.9
12:05 1021 30.15 850 25.1 18.3 64.9 41 5 41
12:10 1021 30.15 850 25.1 17.8 64 44 5.4 41.8
12:15 1021 30.15 850 25.1 17.8 64.1 44 5.6 42.1
12:20 1021 30.15 850 25.1 18 64.3 43 5.4 41.7
12:25 1021 30.15 850 25.1 18.3 64.9 43 5.5 42
12:30 1021 30.15 850 25.1 18.7 65.7 39 4.7 40.5
12:35 1021 30.15 850 25.1 18.4 65.1 41 5 41
12:40 1020 30.12 850 25.1 19 66.3 40 5.3 41.6
12:45 1020 30.12 850 25.1 19.7 67.5 36 4.4 39.9
12:50 1020 30.12 850 25.1 19.4 66.9 38 4.9 40.8
12:55 1020 30.12 850 25.1 18.7 65.7 39 4.7 40.4
13:00 1020 30.12 849 25.07 19.1 66.4 38 4.5 40.1
13:05 1020 30.12 849 25.07 19.5 67 37 4.4 39.9
13:10 1020 30.12 849 25.07 19.5 67.2 39 5.2 41.4
13:15 1020 30.12 849 25.07 19.5 67.1 38 5.1 41.1
13:20 1020 30.12 849 25.07 20.1 68.2 37 5.1 41.2
13:25 1020 30.12 849 25.07 20.7 69.3 35 4.8 40.7
13:30 1020 30.12 849 25.07 20.5 69 37 5.4 41.7
13:35 1020 30.12 849 25.07 19.9 67.9 39 5.7 42.3
13:40 1020 30.12 849 25.07 19.9 67.9 37 5 41
13:45 1020 30.12 849 25.07 19.4 67 40 5.5 41.9
13:50 1020 30.12 849 25.07 19.7 67.4 36 4.4 39.9
13:55 1020 30.12 849 25.07 19.5 67.1 38 4.9 40.9
14:00 1020 30.12 849 25.07 19.6 67.2 38 4.9 40.9
14:05 1020 30.12 849 25.07 19.4 66.9 37 4.5 40.2
14:10 1020 30.12 849 25.07 19.4 66.8 35 3.8 38.8
14:15 1020 30.12 849 25.07 20.7 69.2 33 3.9 38.9
14:20 1020 30.12 849 25.07 21 69.8 31 3.5 38.4
14:25 1020 30.12 849 25.07 20.9 69.5 32 3.6 38.5
14:30 1020 30.12 849 25.07 20.7 69.3 33 4.1 39.5
14:35 1020 30.12 849 25.07 20.1 68.2 34 4.1 39.3
14:40 1020 30.12 849 25.07 20.1 68.1 35 4.1 39.4
14:45 1020 30.12 849 25.07 21 69.9 31 3.6 38.5
14:50 1020 30.12 849 25.07 21.3 70.3 32 4 39.2
14:55 1020 30.12 849 25.07 19.7 67.4 36 4.3 39.7
15:00 1020 30.12 849 25.07 20.2 68.3 33 3.7 38.7
15:05 1020 30.12 849 25.07 21 69.8 32 4 39.2
15:10 1020 30.12 849 25.07 20.8 69.5 34 4.4 39.9
15:15 1019 30.09 849 25.07 19.5 67 35 3.9 39.1
15:20 1019 30.09 849 25.07 20 68 33 3.5 38.2
15:25 1019 30.09 849 25.07 19.8 67.6 35 3.8 38.9
15:30 1019 30.09 849 25.07 19.9 67.8 34 3.8 38.8
15:35 1019 30.09 848 25.04 19.2 66.6 36 3.8 38.9
15:40 1019 30.09 848 25.04 19.8 67.6 34 3.6 38.5
15:45 1019 30.09 848 25.04 20.2 68.4 34 4.2 39.6
15:50 1019 30.09 848 25.04 20.7 69.3 32 3.8 38.9
15:55 1019 30.09 848 25.04 21.6 70.9 32 4.2 39.6
16:00 1019 30.09 848 25.04 20.9 69.5 33 4 39.1
16:05 1019 30.09 848 25.04 20.2 68.4 33 3.4 38.1
16:10 1019 30.09 848 25.04 21.7 71 30 3.4 38.2
16:15 1019 30.09 848 25.04 21.7 71 31 3.9 39
16:20 1019 30.09 848 25.04 21.3 70.3 31 3.6 38.6
16:25 1019 30.09 848 25.04 21.8 71.3 30 3.5 38.2
16:30 1019 30.09 848 25.04 21.1 70 31 3.6 38.5
16:35 1019 30.09 848 25.04 19.9 67.9 33 3.3 38
16:40 1019 30.09 848 25.04 20.8 69.5 30 3 37.4
16:45 1019 30.09 848 25.04 20.4 68.7 31 3 37.3
16:50 1019 30.09 848 25.04 20.7 69.3 30 2.8 37
16:55 1019 30.09 848 25.04 21.9 71.4 28 2.9 37.3
17:00 1019 30.09 848 25.04 21.8 71.2 29 3.3 37.9
17:05 1019 30.09 848 25.04 20.3 68.5 31 2.9 37.2
17:10 1019 30.09 848 25.04 20.4 68.7 31 2.8 37.1
17:15 1019 30.09 848 25.04 20.5 68.9 31 2.9 37.1
17:20 1019 30.09 848 25.04 20.9 69.5 33 4.1 39.4
17:25 1019 30.09 848 25.04 19.5 67.1 41 5.9 42.7
17:30 1019 30.09 848 25.04 18 64.4 43 5.3 41.5
17:35 1019 30.09 848 25.04 17.2 62.9 44 4.9 40.9
17:40 1019 30.09 848 25.04 16.5 61.7 45 4.7 40.5
17:45 1019 30.09 848 25.04 16.2 61.1 46 4.7 40.5
17:50 1019 30.09 848 25.04 16 60.8 47 4.9 40.8
17:55 1019 30.09 848 25.04 16 60.7 48 5 41
18:00 1019 30.09 848 25.04 15.6 60 49 5 41.1
18:05 1019 30.09 848 25.04 15.6 60.1 46 4 39.3
18:10 1019 30.09 848 25.04 16.2 61.2 42 3.3 37.9
18:15 1019 30.09 848 25.04 16.6 61.9 41 3.4 38.1
18:20 1018 30.06 848 25.04 16.8 62.2 41 3.7 38.6
18:25 1019 30.09 848 25.04 16.8 62.3 41 3.6 38.4
18:30 1018 30.06 848 25.04 17.2 63 44 5 41
18:35 1018 30.06 848 25.04 17.2 62.9 44 5 41
18:40 1018 30.06 848 25.04 17.7 63.9 40 4.1 39.4
18:45 1018 30.06 848 25.04 18.1 64.5 41 4.6 40.3
18:50 1018 30.06 848 25.04 17.4 63.4 43 5 41
18:55 1018 30.06 848 25.04 17.5 63.6 42 4.5 40.1
19:00 1018 30.06 848 25.04 17.8 64.1 37 3.2 37.7
19:05 1018 30.06 848 25.04 17.7 63.8 40 4.2 39.5
19:10 1018 30.06 848 25.04 17.6 63.7 42 4.6 40.2
19:15 1018 30.06 847 25.01 17.5 63.4 43 5 41
19:20 1018 30.06 847 25.01 17.3 63.1 44 4.9 40.9
19:25 1018 30.06 847 25.01 17.5 63.5 45 5.6 42.1
19:30 1018 30.06 847 25.01 17.3 63.2 44 5.2 41.4
19:35 1018 30.06 847 25.01 17.2 62.9 44 5 41
19:40 1018 30.06 847 25.01 17.2 62.9 47 5.8 42.5
19:45 1018 30.06 847 25.01 17.3 63.1 45 5.4 41.7
19:50 1018 30.06 847 25.01 17.2 63 45 5.4 41.7
19:55 1018 30.06 848 25.04 17 62.5 46 5.4 41.7
20:00 1018 30.06 848 25.04 16.7 62 47 5.5 41.9
20:05 1019 30.09 848 25.04 16.4 61.6 48 5.5 41.9
20:10 1019 30.09 848 25.04 16.3 61.3 47 5 41
20:15 1019 30.09 848 25.04 16.2 61.2 45 4.4 39.9
20:20 1019 30.09 848 25.04 16.3 61.4 46 4.9 40.7
20:25 1019 30.09 848 25.04 16.1 61.1 46 4.7 40.5
20:30 1019 30.09 848 25.04 15.9 60.7 47 4.6 40.4
20:35 1019 30.09 848 25.04 15.9 60.6 47 4.8 40.6
20:40 1019 30.09 848 25.04 16 60.7 48 5.1 41.3
20:45 1019 30.09 848 25.04 15.9 60.6 49 5.2 41.4
20:50 1019 30.09 848 25.04 15.7 60.3 49 5 41
20:55 1019 30.09 848 25.04 15.6 60 50 5.4 41.7
21:00 1019 30.09 848 25.04 15.4 59.8 52 5.7 42.2
21:05 1019 30.09 848 25.04 15.3 59.6 52 5.7 42.2
21:10 1019 30.09 848 25.04 15.3 59.6 53 5.8 42.5
21:15 1019 30.09 848 25.04 15.2 59.4 54 6.1 43
21:20 1019 30.09 849 25.07 15 59 52 5.4 41.7
21:25 1020 30.12 849 25.07 15.3 59.5 51 5.4 41.7
21:30 1020 30.12 849 25.07 15.2 59.4 55 6.2 43.2
21:35 1020 30.12 849 25.07 15 59 56 6.3 43.3
21:40 1020 30.12 849 25.07 14.9 58.8 56 6.2 43.2
21:45 1020 30.12 849 25.07 14.8 58.7 56 6.1 43
21:50 1020 30.12 849 25.07 14.8 58.7 56 6.2 43.2
21:55 1020 30.12 849 25.07 14.6 58.3 59 6.7 44.1
22:00 1020 30.12 849 25.07 14.2 57.6 60 6.6 43.9
22:05 1020 30.12 849 25.07 14.1 57.4 60 6.4 43.6
22:10 1020 30.12 849 25.07 14.1 57.3 61 6.8 44.3
22:15 1020 30.12 849 25.07 13.7 56.7 63 6.9 44.4
22:20 1020 30.12 849 25.07 13.6 56.4 63 6.7 44
22:25 1020 30.12 849 25.07 13.6 56.5 61 6.4 43.5
22:30 1020 30.12 849 25.07 13.8 56.9 59 6 42.8
22:35 1020 30.12 849 25.07 14.2 57.5 57 5.9 42.6
22:40 1020 30.12 849 25.07 14.4 57.8 57 6 42.8
22:45 1020 30.12 849 25.07 14.4 57.9 57 6 42.9
22:50 1020 30.12 849 25.07 14.3 57.7 58 6.2 43.2
22:55 1020 30.12 849 25.07 13.8 56.8 64 7.1 44.7
23:00 1020 30.12 849 25.07 13.4 56.2 65 7.1 44.8
23:05 1020 30.12 849 25.07 13.6 56.4 67 7.6 45.7
23:10 1020 30.12 850 25.1 13.4 56 67 7.5 45.5
23:15 1020 30.12 850 25.1 13.2 55.7 66 7 44.7
23:20 1020 30.12 850 25.1 13.3 55.9 65 6.9 44.5
23:25 1020 30.12 849 25.07 13.3 56 67 7.4 45.3
23:30 1020 30.12 849 25.07 13.4 56.1 68 7.8 46
23:35 1020 30.12 849 25.07 13.5 56.2 68 7.7 45.9
23:40 1020 30.12 849 25.07 13.3 56 69 7.7 45.9
23:45 1020 30.12 849 25.07 13 55.5 68 7.4 45.4
23:50 1020 30.12 849 25.07 12.8 55 69 7.2 44.9
23:55 1020 30.12 849 25.07 12.4 54.3 71 7.4 45.3
24:00 1020 30.12 849 25.07 12.2 53.9 72 7.4 45.3